Hamilton Square, New Jersey
Current Conditions -  °F | °C
As of 1:53 PM on Sunday 21 Dec 2014 (Local Time) from KTTN Reporting Station
Overcast Overcast  
Wind Chill: 36°   Ceiling: 2600
Heat Index: 36°   Visibility: 10mi
Dew Point: 23°   Wind: 3mph
Humidity: 59%   Direction: 320°NW
Pressure: 30.29"   Gusts: NA
Location:  40.2318°N, 74.6526°W
Report Text: KTTN 211853Z 32003KT 10SM OVC026 02/M05 A3029 RMK AO2 SLP252 T00221050
Loading
Personal Weather Stations






























Interactive Weather Map New forecast layout! Learn more

10-Day Weather Forecast

Advertisements
Track Severe Weather on mobile